Flight Track Log - Related Links

Times and Time Zones

All times are in EDT time to prevent confusion due to time zone crossing. See the PDT4226 flight status page for this flight to view local times or setup timezone preferences in your user account.

Time Position Orientation Groundspeed Altitude Reporting Facility
EDT Latitude Longitude Course Direction KTS MPH feet Rate Location/Type
Sat 12:15:46 PM 39.9000 -75.2333 310° West 124 143 700  Level Philadelphia TRACON
Sat 12:16:34 PM 39.9167 -75.2833 294° West 152 175 1,700 1,176 Climbing Philadelphia TRACON
Sat 12:17:28 PM 39.9333 -75.3167 303° West 151 174 2,700 1,150 Climbing Philadelphia TRACON
Sat 12:18:34 PM 39.9500 -75.3833 288° West 156 180 4,000 1,190 Climbing Philadelphia TRACON
Sat 12:19:00 PM 40.1725 -75.3329 311° West  Level Estimated
Sat 12:19:34 PM 39.9667 -75.4333 294° West 153 176 5,200  Level Philadelphia TRACON
Sat 12:20:00 PM 40.2119 -75.4196 301° West  Level FlightAware Approximate
Sat 12:20:34 PM 40.0000 -75.4500 339° North 166 191 6,300  Level Philadelphia TRACON
Sat 12:21:00 PM 40.2874 -75.4402 310° West  Level Estimated
Sat 12:21:34 PM 40.0500 -75.4667 346° North 157 181 7,500  Level Philadelphia TRACON
Sat 12:22:18 PM 40.0697 -75.4742 344° North 159 183 8,000 865 Climbing New York Center
Sat 12:23:18 PM 40.1186 -75.5047 334° Northwest 164 189 9,000 900 Climbing New York Center
Sat 12:24:18 PM 40.1514 -75.5206 340° North 170 196 9,800 850 Climbing New York Center
Sat 12:25:18 PM 40.2003 -75.5431 341° North 181 208 10,700 908 Climbing New York Center
Sat 12:26:17 PM 40.2411 -75.5703 333° Northwest 170 196 11,600 655 Climbing New York Center
Sat 12:27:17 PM 40.2581 -75.6122 298° West 140 161 12,000 198 Climbing New York Center
Sat 12:28:18 PM 40.2875 -75.6578 310° West 164 189 12,000  Level New York Center
Sat 12:29:17 PM 40.3247 -75.7122 312° West 189 217 12,000  Level New York Center
Sat 12:30:18 PM 40.3639 -75.7722 311° West 194 223 12,000  Level New York Center
Sat 12:31:18 PM 40.4008 -75.8322 309° West 200 230 12,000  Level New York Center
Sat 12:32:18 PM 40.4403 -75.8894 312° West 205 236 12,000 100 Level New York Center
Sat 12:33:18 PM 40.4792 -75.9497 310° West 215 247 12,200 450 Climbing New York Center
Sat 12:34:18 PM 40.5125 -76.0014 310° West 210 242 12,900 800 Climbing New York Center
Sat 12:35:18 PM 40.5517 -76.0564 313° West 200 230 13,800 550 Climbing New York Center
Sat 12:36:18 PM 40.5825 -76.1106 307° West 188 216 14,000 101 Climbing New York Center
Sat 12:37:17 PM 40.6153 -76.1706 306° West 194 223 14,000  Level New York Center
Sat 12:38:17 PM 40.6522 -76.2256 312° West 213 245 14,000  Level New York Center
Sat 12:39:17 PM 40.7044 -76.2681 328° Northwest 218 251 14,000  Level New York Center
Sat 12:40:17 PM 40.7889 -76.2447 12° North 218 251 14,000  Level New York Center
Sat 12:41:17 PM 40.8664 -76.2397 North 250 288 14,000  Level New York Center
Sat 12:42:18 PM 40.9433 -76.2406 360° North 269 310 14,000  Level New York Center
Sat 12:43:18 PM 41.0103 -76.2378 North 275 316 14,000 50 Level New York Center
Sat 12:44:18 PM 41.0983 -76.2256 North 275 316 14,100 50 Climbing New York Center
Sat 12:45:18 PM 41.1758 -76.2150 North 275 316 14,100  Level New York Center
Sat 12:46:17 PM 41.2511 -76.2075 North 275 316 14,100  Level New York Center
Sat 12:47:17 PM 41.3219 -76.2047 North 275 316 14,100 -50 Level New York Center
Sat 12:48:18 PM 41.3994 -76.2000 North 275 316 14,000  Descending New York Center
Sat 12:49:18 PM 41.4853 -76.1903 North 275 316 14,100 50 Climbing New York Center
Sat 12:50:18 PM 41.5647 -76.1803 North 280 322 14,100 -303 Level New York Center
Sat 12:51:17 PM 41.6442 -76.1756 North 280 322 13,500 -807 Descending New York Center
Sat 12:52:17 PM 41.7192 -76.1733 North 295 339 12,500 -1,100 Descending New York Center
Sat 12:53:17 PM 41.8047 -76.1717 North 295 339 11,300 -1,289 Descending New York Center
Sat 12:54:18 PM 41.8919 -76.1761 358° North 290 334 9,900 -230 Descending New York Center
Sat 12:56:00 PM 41.9920 -76.1333 North  Level FlightAware Approximate
Sat 01:03:00 PM 42.2000 -75.9667 90° East  Level FlightAware Approximate
Sat 01:03:18 PM 42.3061 -75.9467 90° East 115 132 9,000  Level New York Center
Sat 01:04:00 PM 42.2084 -75.9796 90° East  Level Estimated
Sat 01:04:18 PM 42.3322 -75.9206 36° Northeast 115 132 9,000  Level New York Center
Sat 01:05:00 PM 42.2084 -75.9796 90° East  Level Estimated

Login

Don't have an account? Register now (free) for customized features, flight alerts, and more!